sensor_id;sensor_type;location;lat;lon;timestamp;P1;durP1;ratioP1;P2;durP2;ratioP2
12689;SDS011;6409;56.294;14.480;2022-09-19T00:00:40;0.50;;;0.50;;
12689;SDS011;6409;56.294;14.480;2022-09-19T00:03:07;0.50;;;0.50;;
12689;SDS011;6409;56.294;14.480;2022-09-19T00:05:37;0.50;;;0.50;;
12689;SDS011;6409;56.294;14.480;2022-09-19T00:08:04;0.40;;;0.40;;
12689;SDS011;6409;56.294;14.480;2022-09-19T00:10:35;0.50;;;0.50;;
12689;SDS011;6409;56.294;14.480;2022-09-19T00:13:04;0.50;;;0.50;;
12689;SDS011;6409;56.294;14.480;2022-09-19T00:15:32;1.23;;;0.53;;
12689;SDS011;6409;56.294;14.480;2022-09-19T00:18:00;2.20;;;0.60;;
12689;SDS011;6409;56.294;14.480;2022-09-19T00:20:27;1.60;;;0.60;;
12689;SDS011;6409;56.294;14.480;2022-09-19T00:22:54;0.50;;;0.50;;
12689;SDS011;6409;56.294;14.480;2022-09-19T00:25:38;0.70;;;0.70;;
12689;SDS011;6409;56.294;14.480;2022-09-19T00:28:06;0.40;;;0.40;;
12689;SDS011;6409;56.294;14.480;2022-09-19T00:30:36;0.50;;;0.50;;
12689;SDS011;6409;56.294;14.480;2022-09-19T00:33:04;0.30;;;0.30;;
12689;SDS011;6409;56.294;14.480;2022-09-19T00:35:31;0.40;;;0.40;;
12689;SDS011;6409;56.294;14.480;2022-09-19T00:37:58;0.60;;;0.60;;
12689;SDS011;6409;56.294;14.480;2022-09-19T00:40:25;0.40;;;0.40;;
12689;SDS011;6409;56.294;14.480;2022-09-19T00:42:52;0.50;;;0.50;;
12689;SDS011;6409;56.294;14.480;2022-09-19T00:45:20;0.50;;;0.50;;
12689;SDS011;6409;56.294;14.480;2022-09-19T00:47:47;0.83;;;0.83;;
12689;SDS011;6409;56.294;14.480;2022-09-19T00:50:16;0.43;;;0.43;;
12689;SDS011;6409;56.294;14.480;2022-09-19T00:52:48;0.47;;;0.47;;
12689;SDS011;6409;56.294;14.480;2022-09-19T00:55:16;2.53;;;0.40;;
12689;SDS011;6409;56.294;14.480;2022-09-19T00:57:55;0.40;;;0.40;;
12689;SDS011;6409;56.294;14.480;2022-09-19T01:00:27;0.40;;;0.40;;
12689;SDS011;6409;56.294;14.480;2022-09-19T01:02:54;0.50;;;0.50;;
12689;SDS011;6409;56.294;14.480;2022-09-19T01:05:23;0.40;;;0.40;;
12689;SDS011;6409;56.294;14.480;2022-09-19T01:07:58;0.50;;;0.50;;
12689;SDS011;6409;56.294;14.480;2022-09-19T01:10:36;0.50;;;0.50;;
12689;SDS011;6409;56.294;14.480;2022-09-19T01:13:15;0.50;;;0.50;;
12689;SDS011;6409;56.294;14.480;2022-09-19T01:15:49;0.40;;;0.40;;
12689;SDS011;6409;56.294;14.480;2022-09-19T01:18:20;2.10;;;0.60;;
12689;SDS011;6409;56.294;14.480;2022-09-19T01:24:19;1.30;;;1.20;;
12689;SDS011;6409;56.294;14.480;2022-09-19T01:27:09;0.43;;;0.43;;
12689;SDS011;6409;56.294;14.480;2022-09-19T01:29:56;0.60;;;0.60;;
12689;SDS011;6409;56.294;14.480;2022-09-19T01:32:29;4.83;;;1.50;;
12689;SDS011;6409;56.294;14.480;2022-09-19T01:34:59;0.50;;;0.50;;
12689;SDS011;6409;56.294;14.480;2022-09-19T01:37:29;0.70;;;0.70;;
12689;SDS011;6409;56.294;14.480;2022-09-19T01:40:01;0.40;;;0.40;;
12689;SDS011;6409;56.294;14.480;2022-09-19T01:42:30;0.47;;;0.47;;
12689;SDS011;6409;56.294;14.480;2022-09-19T01:44:58;0.50;;;0.50;;
12689;SDS011;6409;56.294;14.480;2022-09-19T01:47:28;1.37;;;0.90;;
12689;SDS011;6409;56.294;14.480;2022-09-19T01:50:01;0.40;;;0.40;;
12689;SDS011;6409;56.294;14.480;2022-09-19T01:52:36;0.73;;;0.53;;
12689;SDS011;6409;56.294;14.480;2022-09-19T01:55:15;0.77;;;0.77;;
12689;SDS011;6409;56.294;14.480;2022-09-19T01:57:48;0.43;;;0.43;;
12689;SDS011;6409;56.294;14.480;2022-09-19T02:00:20;0.50;;;0.50;;
12689;SDS011;6409;56.294;14.480;2022-09-19T02:02:52;0.50;;;0.50;;
12689;SDS011;6409;56.294;14.480;2022-09-19T02:05:26;0.43;;;0.43;;
12689;SDS011;6409;56.294;14.480;2022-09-19T02:08:02;0.60;;;0.60;;
12689;SDS011;6409;56.294;14.480;2022-09-19T02:10:34;0.50;;;0.50;;
12689;SDS011;6409;56.294;14.480;2022-09-19T02:13:05;0.63;;;0.40;;
12689;SDS011;6409;56.294;14.480;2022-09-19T02:15:35;0.67;;;0.67;;
12689;SDS011;6409;56.294;14.480;2022-09-19T02:18:04;0.93;;;0.80;;
12689;SDS011;6409;56.294;14.480;2022-09-19T02:20:35;0.40;;;0.40;;
12689;SDS011;6409;56.294;14.480;2022-09-19T02:23:06;0.53;;;0.53;;
12689;SDS011;6409;56.294;14.480;2022-09-19T02:25:36;0.63;;;0.63;;
12689;SDS011;6409;56.294;14.480;2022-09-19T02:28:04;0.40;;;0.40;;
12689;SDS011;6409;56.294;14.480;2022-09-19T02:30:33;0.50;;;0.50;;
12689;SDS011;6409;56.294;14.480;2022-09-19T02:33:02;0.50;;;0.50;;
12689;SDS011;6409;56.294;14.480;2022-09-19T02:35:35;2.57;;;0.67;;
12689;SDS011;6409;56.294;14.480;2022-09-19T02:38:07;0.50;;;0.50;;
12689;SDS011;6409;56.294;14.480;2022-09-19T02:40:41;0.63;;;0.63;;
12689;SDS011;6409;56.294;14.480;2022-09-19T02:43:16;0.40;;;0.40;;
12689;SDS011;6409;56.294;14.480;2022-09-19T02:45:48;0.50;;;0.50;;
12689;SDS011;6409;56.294;14.480;2022-09-19T02:48:18;0.60;;;0.60;;
12689;SDS011;6409;56.294;14.480;2022-09-19T02:50:48;0.53;;;0.53;;
12689;SDS011;6409;56.294;14.480;2022-09-19T02:53:22;0.50;;;0.50;;
12689;SDS011;6409;56.294;14.480;2022-09-19T02:55:52;0.60;;;0.60;;
12689;SDS011;6409;56.294;14.480;2022-09-19T02:58:22;0.50;;;0.50;;
12689;SDS011;6409;56.294;14.480;2022-09-19T03:00:53;0.80;;;0.67;;
12689;SDS011;6409;56.294;14.480;2022-09-19T03:03:24;0.50;;;0.50;;
12689;SDS011;6409;56.294;14.480;2022-09-19T03:06:11;0.40;;;0.40;;
12689;SDS011;6409;56.294;14.480;2022-09-19T03:08:40;2.03;;;0.83;;
12689;SDS011;6409;56.294;14.480;2022-09-19T03:11:10;0.50;;;0.50;;
12689;SDS011;6409;56.294;14.480;2022-09-19T03:13:40;0.40;;;0.40;;
12689;SDS011;6409;56.294;14.480;2022-09-19T03:16:08;0.50;;;0.50;;
12689;SDS011;6409;56.294;14.480;2022-09-19T03:18:37;0.30;;;0.30;;
12689;SDS011;6409;56.294;14.480;2022-09-19T03:21:06;2.87;;;0.67;;
12689;SDS011;6409;56.294;14.480;2022-09-19T03:23:37;3.60;;;0.70;;
12689;SDS011;6409;56.294;14.480;2022-09-19T03:26:05;0.43;;;0.43;;
12689;SDS011;6409;56.294;14.480;2022-09-19T03:28:35;0.43;;;0.43;;
12689;SDS011;6409;56.294;14.480;2022-09-19T03:31:01;6.50;;;0.73;;
12689;SDS011;6409;56.294;14.480;2022-09-19T03:33:30;0.50;;;0.50;;
12689;SDS011;6409;56.294;14.480;2022-09-19T03:35:57;0.40;;;0.40;;
12689;SDS011;6409;56.294;14.480;2022-09-19T03:38:24;0.50;;;0.50;;
12689;SDS011;6409;56.294;14.480;2022-09-19T03:40:52;0.50;;;0.50;;
12689;SDS011;6409;56.294;14.480;2022-09-19T03:43:19;0.67;;;0.50;;
12689;SDS011;6409;56.294;14.480;2022-09-19T03:45:46;0.70;;;0.70;;
12689;SDS011;6409;56.294;14.480;2022-09-19T03:48:13;0.57;;;0.57;;
12689;SDS011;6409;56.294;14.480;2022-09-19T03:50:42;0.57;;;0.57;;
12689;SDS011;6409;56.294;14.480;2022-09-19T03:53:09;0.97;;;0.70;;
12689;SDS011;6409;56.294;14.480;2022-09-19T03:55:36;0.50;;;0.50;;
12689;SDS011;6409;56.294;14.480;2022-09-19T03:58:05;0.43;;;0.43;;
12689;SDS011;6409;56.294;14.480;2022-09-19T04:00:32;0.50;;;0.50;;
12689;SDS011;6409;56.294;14.480;2022-09-19T04:02:59;0.50;;;0.50;;
12689;SDS011;6409;56.294;14.480;2022-09-19T04:05:26;0.60;;;0.60;;
12689;SDS011;6409;56.294;14.480;2022-09-19T04:07:54;0.50;;;0.50;;
12689;SDS011;6409;56.294;14.480;2022-09-19T04:10:21;0.40;;;0.40;;
12689;SDS011;6409;56.294;14.480;2022-09-19T04:12:48;0.50;;;0.50;;
12689;SDS011;6409;56.294;14.480;2022-09-19T04:15:15;0.47;;;0.47;;
12689;SDS011;6409;56.294;14.480;2022-09-19T04:17:42;0.50;;;0.50;;
12689;SDS011;6409;56.294;14.480;2022-09-19T04:20:09;5.33;;;0.50;;
12689;SDS011;6409;56.294;14.480;2022-09-19T04:22:36;1.33;;;0.57;;
12689;SDS011;6409;56.294;14.480;2022-09-19T04:25:05;0.50;;;0.50;;
12689;SDS011;6409;56.294;14.480;2022-09-19T04:27:36;0.70;;;0.70;;
12689;SDS011;6409;56.294;14.480;2022-09-19T04:30:03;0.50;;;0.50;;
12689;SDS011;6409;56.294;14.480;2022-09-19T04:32:31;0.40;;;0.40;;
12689;SDS011;6409;56.294;14.480;2022-09-19T04:34:58;0.40;;;0.40;;
12689;SDS011;6409;56.294;14.480;2022-09-19T04:37:25;0.40;;;0.40;;
12689;SDS011;6409;56.294;14.480;2022-09-19T04:39:54;0.30;;;0.30;;
12689;SDS011;6409;56.294;14.480;2022-09-19T04:42:22;0.37;;;0.37;;
12689;SDS011;6409;56.294;14.480;2022-09-19T04:44:49;0.47;;;0.47;;
12689;SDS011;6409;56.294;14.480;2022-09-19T04:47:21;0.40;;;0.40;;
12689;SDS011;6409;56.294;14.480;2022-09-19T04:49:48;0.60;;;0.60;;
12689;SDS011;6409;56.294;14.480;2022-09-19T04:52:15;0.50;;;0.50;;
12689;SDS011;6409;56.294;14.480;2022-09-19T04:54:42;0.57;;;0.57;;
12689;SDS011;6409;56.294;14.480;2022-09-19T04:57:10;0.47;;;0.47;;
12689;SDS011;6409;56.294;14.480;2022-09-19T04:59:38;3.20;;;0.43;;
12689;SDS011;6409;56.294;14.480;2022-09-19T05:02:05;0.60;;;0.60;;
12689;SDS011;6409;56.294;14.480;2022-09-19T05:04:33;0.40;;;0.40;;
12689;SDS011;6409;56.294;14.480;2022-09-19T05:07:00;0.50;;;0.50;;
12689;SDS011;6409;56.294;14.480;2022-09-19T05:09:28;0.40;;;0.40;;
12689;SDS011;6409;56.294;14.480;2022-09-19T05:11:55;0.97;;;0.73;;
12689;SDS011;6409;56.294;14.480;2022-09-19T05:14:22;0.40;;;0.40;;
12689;SDS011;6409;56.294;14.480;2022-09-19T05:16:52;0.40;;;0.40;;
12689;SDS011;6409;56.294;14.480;2022-09-19T05:19:19;0.33;;;0.33;;
12689;SDS011;6409;56.294;14.480;2022-09-19T05:21:47;0.47;;;0.47;;
12689;SDS011;6409;56.294;14.480;2022-09-19T05:24:14;0.57;;;0.57;;
12689;SDS011;6409;56.294;14.480;2022-09-19T05:26:41;0.50;;;0.50;;
12689;SDS011;6409;56.294;14.480;2022-09-19T05:29:08;0.50;;;0.50;;
12689;SDS011;6409;56.294;14.480;2022-09-19T05:31:37;0.33;;;0.33;;
12689;SDS011;6409;56.294;14.480;2022-09-19T05:34:06;0.40;;;0.40;;
12689;SDS011;6409;56.294;14.480;2022-09-19T05:36:34;3.87;;;0.60;;
12689;SDS011;6409;56.294;14.480;2022-09-19T05:39:01;0.50;;;0.50;;
12689;SDS011;6409;56.294;14.480;2022-09-19T05:41:28;0.40;;;0.40;;
12689;SDS011;6409;56.294;14.480;2022-09-19T05:43:56;0.40;;;0.40;;
12689;SDS011;6409;56.294;14.480;2022-09-19T05:46:24;0.40;;;0.40;;
12689;SDS011;6409;56.294;14.480;2022-09-19T05:48:52;2.63;;;0.70;;
12689;SDS011;6409;56.294;14.480;2022-09-19T05:51:20;0.40;;;0.40;;
12689;SDS011;6409;56.294;14.480;2022-09-19T05:53:47;0.30;;;0.30;;
12689;SDS011;6409;56.294;14.480;2022-09-19T05:56:20;0.43;;;0.43;;
12689;SDS011;6409;56.294;14.480;2022-09-19T05:58:47;0.53;;;0.40;;
12689;SDS011;6409;56.294;14.480;2022-09-19T06:01:14;0.43;;;0.43;;
12689;SDS011;6409;56.294;14.480;2022-09-19T06:03:41;0.40;;;0.40;;
12689;SDS011;6409;56.294;14.480;2022-09-19T06:06:11;0.30;;;0.30;;
12689;SDS011;6409;56.294;14.480;2022-09-19T06:08:45;0.40;;;0.40;;
12689;SDS011;6409;56.294;14.480;2022-09-19T06:11:13;0.50;;;0.50;;
12689;SDS011;6409;56.294;14.480;2022-09-19T06:13:40;0.57;;;0.53;;
12689;SDS011;6409;56.294;14.480;2022-09-19T06:16:24;0.40;;;0.40;;
12689;SDS011;6409;56.294;14.480;2022-09-19T06:18:51;0.30;;;0.30;;
12689;SDS011;6409;56.294;14.480;2022-09-19T06:21:18;0.50;;;0.50;;
12689;SDS011;6409;56.294;14.480;2022-09-19T06:23:46;0.50;;;0.50;;
12689;SDS011;6409;56.294;14.480;2022-09-19T06:26:13;0.60;;;0.60;;
12689;SDS011;6409;56.294;14.480;2022-09-19T06:28:41;0.40;;;0.40;;
12689;SDS011;6409;56.294;14.480;2022-09-19T06:31:09;4.37;;;0.70;;
12689;SDS011;6409;56.294;14.480;2022-09-19T06:33:35;0.67;;;0.67;;
12689;SDS011;6409;56.294;14.480;2022-09-19T06:36:03;1.60;;;0.50;;
12689;SDS011;6409;56.294;14.480;2022-09-19T06:38:30;0.40;;;0.40;;
12689;SDS011;6409;56.294;14.480;2022-09-19T06:40:59;0.40;;;0.40;;
12689;SDS011;6409;56.294;14.480;2022-09-19T06:43:26;0.30;;;0.30;;
12689;SDS011;6409;56.294;14.480;2022-09-19T06:45:55;0.47;;;0.47;;
12689;SDS011;6409;56.294;14.480;2022-09-19T06:48:22;0.40;;;0.40;;
12689;SDS011;6409;56.294;14.480;2022-09-19T06:50:49;0.47;;;0.47;;
12689;SDS011;6409;56.294;14.480;2022-09-19T06:53:16;0.30;;;0.30;;
12689;SDS011;6409;56.294;14.480;2022-09-19T06:55:43;0.30;;;0.30;;
12689;SDS011;6409;56.294;14.480;2022-09-19T06:58:11;0.40;;;0.40;;
12689;SDS011;6409;56.294;14.480;2022-09-19T07:00:39;1.00;;;0.70;;
12689;SDS011;6409;56.294;14.480;2022-09-19T07:03:09;0.47;;;0.47;;
12689;SDS011;6409;56.294;14.480;2022-09-19T07:05:38;0.30;;;0.30;;
12689;SDS011;6409;56.294;14.480;2022-09-19T07:08:07;0.40;;;0.40;;
12689;SDS011;6409;56.294;14.480;2022-09-19T07:10:35;0.50;;;0.50;;
12689;SDS011;6409;56.294;14.480;2022-09-19T07:13:02;0.40;;;0.40;;
12689;SDS011;6409;56.294;14.480;2022-09-19T07:15:32;0.47;;;0.47;;
12689;SDS011;6409;56.294;14.480;2022-09-19T07:18:00;0.40;;;0.40;;
12689;SDS011;6409;56.294;14.480;2022-09-19T07:20:28;0.50;;;0.50;;
12689;SDS011;6409;56.294;14.480;2022-09-19T07:22:58;0.30;;;0.30;;
12689;SDS011;6409;56.294;14.480;2022-09-19T07:25:27;0.50;;;0.50;;
12689;SDS011;6409;56.294;14.480;2022-09-19T07:27:54;0.50;;;0.50;;
12689;SDS011;6409;56.294;14.480;2022-09-19T07:30:22;0.73;;;0.70;;
12689;SDS011;6409;56.294;14.480;2022-09-19T07:32:50;0.43;;;0.43;;
12689;SDS011;6409;56.294;14.480;2022-09-19T07:35:20;0.40;;;0.40;;
12689;SDS011;6409;56.294;14.480;2022-09-19T07:37:50;0.50;;;0.50;;
12689;SDS011;6409;56.294;14.480;2022-09-19T07:40:17;0.50;;;0.50;;
12689;SDS011;6409;56.294;14.480;2022-09-19T07:42:44;0.57;;;0.57;;
12689;SDS011;6409;56.294;14.480;2022-09-19T07:45:11;0.73;;;0.70;;
12689;SDS011;6409;56.294;14.480;2022-09-19T07:47:41;0.50;;;0.50;;
12689;SDS011;6409;56.294;14.480;2022-09-19T07:50:10;0.53;;;0.53;;
12689;SDS011;6409;56.294;14.480;2022-09-19T07:52:37;0.40;;;0.40;;
12689;SDS011;6409;56.294;14.480;2022-09-19T07:55:05;0.63;;;0.63;;
12689;SDS011;6409;56.294;14.480;2022-09-19T07:57:32;0.60;;;0.60;;
12689;SDS011;6409;56.294;14.480;2022-09-19T07:59:59;0.57;;;0.57;;
12689;SDS011;6409;56.294;14.480;2022-09-19T08:02:26;0.70;;;0.70;;
12689;SDS011;6409;56.294;14.480;2022-09-19T08:04:53;0.60;;;0.60;;
12689;SDS011;6409;56.294;14.480;2022-09-19T08:07:21;1.00;;;0.80;;
12689;SDS011;6409;56.294;14.480;2022-09-19T08:09:49;0.77;;;0.77;;
12689;SDS011;6409;56.294;14.480;2022-09-19T08:12:16;0.77;;;0.77;;
12689;SDS011;6409;56.294;14.480;2022-09-19T08:14:43;0.80;;;0.80;;
12689;SDS011;6409;56.294;14.480;2022-09-19T08:17:10;0.70;;;0.70;;
12689;SDS011;6409;56.294;14.480;2022-09-19T08:19:37;0.70;;;0.70;;
12689;SDS011;6409;56.294;14.480;2022-09-19T08:22:03;0.70;;;0.70;;
12689;SDS011;6409;56.294;14.480;2022-09-19T08:24:32;0.70;;;0.70;;
12689;SDS011;6409;56.294;14.480;2022-09-19T08:26:59;1.00;;;1.00;;
12689;SDS011;6409;56.294;14.480;2022-09-19T08:29:26;0.80;;;0.80;;
12689;SDS011;6409;56.294;14.480;2022-09-19T08:31:52;0.90;;;0.90;;
12689;SDS011;6409;56.294;14.480;2022-09-19T08:34:19;0.90;;;0.90;;
12689;SDS011;6409;56.294;14.480;2022-09-19T08:36:46;1.00;;;1.00;;
12689;SDS011;6409;56.294;14.480;2022-09-19T08:39:13;1.73;;;1.63;;
12689;SDS011;6409;56.294;14.480;2022-09-19T08:42:00;1.00;;;1.00;;
12689;SDS011;6409;56.294;14.480;2022-09-19T08:44:36;0.90;;;0.90;;
12689;SDS011;6409;56.294;14.480;2022-09-19T08:47:15;1.00;;;1.00;;
12689;SDS011;6409;56.294;14.480;2022-09-19T08:49:44;1.00;;;1.00;;
12689;SDS011;6409;56.294;14.480;2022-09-19T08:52:17;1.10;;;1.10;;
12689;SDS011;6409;56.294;14.480;2022-09-19T08:54:52;1.00;;;1.00;;
12689;SDS011;6409;56.294;14.480;2022-09-19T08:57:21;1.57;;;1.47;;
12689;SDS011;6409;56.294;14.480;2022-09-19T08:59:52;1.50;;;1.50;;
12689;SDS011;6409;56.294;14.480;2022-09-19T09:02:23;1.40;;;1.40;;
12689;SDS011;6409;56.294;14.480;2022-09-19T09:04:53;1.60;;;1.60;;
12689;SDS011;6409;56.294;14.480;2022-09-19T09:07:27;1.60;;;1.60;;
12689;SDS011;6409;56.294;14.480;2022-09-19T09:10:07;1.40;;;1.40;;
12689;SDS011;6409;56.294;14.480;2022-09-19T09:12:46;1.50;;;1.50;;
12689;SDS011;6409;56.294;14.480;2022-09-19T09:15:22;1.70;;;1.70;;
12689;SDS011;6409;56.294;14.480;2022-09-19T09:18:01;1.50;;;1.50;;
12689;SDS011;6409;56.294;14.480;2022-09-19T09:20:39;1.67;;;1.67;;
12689;SDS011;6409;56.294;14.480;2022-09-19T09:23:11;1.73;;;1.67;;
12689;SDS011;6409;56.294;14.480;2022-09-19T09:25:42;1.70;;;1.70;;
12689;SDS011;6409;56.294;14.480;2022-09-19T09:28:13;1.80;;;1.70;;
12689;SDS011;6409;56.294;14.480;2022-09-19T09:30:43;1.63;;;1.63;;
12689;SDS011;6409;56.294;14.480;2022-09-19T09:33:13;1.87;;;1.77;;
12689;SDS011;6409;56.294;14.480;2022-09-19T09:35:44;1.93;;;1.83;;
12689;SDS011;6409;56.294;14.480;2022-09-19T09:38:17;2.10;;;2.00;;
12689;SDS011;6409;56.294;14.480;2022-09-19T09:40:52;1.90;;;1.90;;
12689;SDS011;6409;56.294;14.480;2022-09-19T09:43:42;1.93;;;1.87;;
12689;SDS011;6409;56.294;14.480;2022-09-19T09:46:21;2.03;;;2.00;;
12689;SDS011;6409;56.294;14.480;2022-09-19T09:48:55;2.03;;;2.00;;
12689;SDS011;6409;56.294;14.480;2022-09-19T09:51:23;2.00;;;2.00;;
12689;SDS011;6409;56.294;14.480;2022-09-19T09:54:03;3.07;;;1.93;;
12689;SDS011;6409;56.294;14.480;2022-09-19T09:56:54;1.70;;;1.70;;
12689;SDS011;6409;56.294;14.480;2022-09-19T09:59:32;7.30;;;2.17;;
12689;SDS011;6409;56.294;14.480;2022-09-19T10:02:21;1.83;;;1.83;;
12689;SDS011;6409;56.294;14.480;2022-09-19T10:05:12;1.70;;;1.70;;
12689;SDS011;6409;56.294;14.480;2022-09-19T10:07:42;1.70;;;1.70;;
12689;SDS011;6409;56.294;14.480;2022-09-19T10:10:13;1.80;;;1.80;;
12689;SDS011;6409;56.294;14.480;2022-09-19T10:12:42;1.80;;;1.80;;
12689;SDS011;6409;56.294;14.480;2022-09-19T10:15:14;1.80;;;1.80;;
12689;SDS011;6409;56.294;14.480;2022-09-19T10:17:44;2.50;;;1.70;;
12689;SDS011;6409;56.294;14.480;2022-09-19T10:20:15;1.80;;;1.80;;
12689;SDS011;6409;56.294;14.480;2022-09-19T10:22:44;2.00;;;1.90;;
12689;SDS011;6409;56.294;14.480;2022-09-19T10:25:12;1.80;;;1.80;;
12689;SDS011;6409;56.294;14.480;2022-09-19T10:27:39;1.90;;;1.80;;
12689;SDS011;6409;56.294;14.480;2022-09-19T10:30:11;1.80;;;1.80;;
12689;SDS011;6409;56.294;14.480;2022-09-19T10:32:43;1.80;;;1.80;;
12689;SDS011;6409;56.294;14.480;2022-09-19T10:35:19;1.90;;;1.80;;
12689;SDS011;6409;56.294;14.480;2022-09-19T10:37:52;1.80;;;1.80;;
12689;SDS011;6409;56.294;14.480;2022-09-19T10:40:20;1.87;;;1.87;;
12689;SDS011;6409;56.294;14.480;2022-09-19T10:42:48;2.00;;;1.90;;
12689;SDS011;6409;56.294;14.480;2022-09-19T10:45:21;1.70;;;1.70;;
12689;SDS011;6409;56.294;14.480;2022-09-19T10:47:51;1.93;;;1.90;;
12689;SDS011;6409;56.294;14.480;2022-09-19T10:50:20;1.80;;;1.80;;
12689;SDS011;6409;56.294;14.480;2022-09-19T10:52:47;1.90;;;1.90;;
12689;SDS011;6409;56.294;14.480;2022-09-19T10:55:17;1.70;;;1.70;;
12689;SDS011;6409;56.294;14.480;2022-09-19T10:57:48;1.77;;;1.77;;
12689;SDS011;6409;56.294;14.480;2022-09-19T11:00:21;1.60;;;1.60;;
12689;SDS011;6409;56.294;14.480;2022-09-19T11:02:59;1.80;;;1.70;;
12689;SDS011;6409;56.294;14.480;2022-09-19T11:05:30;1.70;;;1.70;;
12689;SDS011;6409;56.294;14.480;2022-09-19T11:07:58;1.70;;;1.70;;
12689;SDS011;6409;56.294;14.480;2022-09-19T11:10:29;1.60;;;1.60;;
12689;SDS011;6409;56.294;14.480;2022-09-19T11:13:07;2.20;;;1.80;;
12689;SDS011;6409;56.294;14.480;2022-09-19T11:15:44;1.80;;;1.70;;
12689;SDS011;6409;56.294;14.480;2022-09-19T11:18:39;1.60;;;1.60;;
12689;SDS011;6409;56.294;14.480;2022-09-19T11:21:13;1.70;;;1.70;;
12689;SDS011;6409;56.294;14.480;2022-09-19T11:23:57;1.73;;;1.73;;
12689;SDS011;6409;56.294;14.480;2022-09-19T11:26:41;1.70;;;1.70;;
12689;SDS011;6409;56.294;14.480;2022-09-19T11:29:29;1.80;;;1.80;;
12689;SDS011;6409;56.294;14.480;2022-09-19T11:32:13;1.70;;;1.70;;
12689;SDS011;6409;56.294;14.480;2022-09-19T11:34:58;1.87;;;1.87;;
12689;SDS011;6409;56.294;14.480;2022-09-19T11:37:34;1.60;;;1.60;;
12689;SDS011;6409;56.294;14.480;2022-09-19T11:40:14;1.70;;;1.60;;
12689;SDS011;6409;56.294;14.480;2022-09-19T11:42:54;1.60;;;1.60;;
12689;SDS011;6409;56.294;14.480;2022-09-19T11:45:41;1.60;;;1.60;;
12689;SDS011;6409;56.294;14.480;2022-09-19T11:48:21;1.70;;;1.70;;
12689;SDS011;6409;56.294;14.480;2022-09-19T11:51:03;1.60;;;1.60;;
12689;SDS011;6409;56.294;14.480;2022-09-19T11:53:53;1.67;;;1.67;;
12689;SDS011;6409;56.294;14.480;2022-09-19T11:56:57;1.50;;;1.50;;
12689;SDS011;6409;56.294;14.480;2022-09-19T11:59:38;1.70;;;1.70;;
12689;SDS011;6409;56.294;14.480;2022-09-19T12:02:17;1.50;;;1.50;;
12689;SDS011;6409;56.294;14.480;2022-09-19T12:05:04;1.60;;;1.50;;
12689;SDS011;6409;56.294;14.480;2022-09-19T12:07:44;1.57;;;1.57;;
12689;SDS011;6409;56.294;14.480;2022-09-19T12:10:18;1.50;;;1.50;;
12689;SDS011;6409;56.294;14.480;2022-09-19T12:12:47;3.60;;;1.50;;
12689;SDS011;6409;56.294;14.480;2022-09-19T12:15:17;1.47;;;1.47;;
12689;SDS011;6409;56.294;14.480;2022-09-19T12:17:50;1.50;;;1.50;;
12689;SDS011;6409;56.294;14.480;2022-09-19T12:20:23;1.80;;;1.70;;
12689;SDS011;6409;56.294;14.480;2022-09-19T12:22:54;1.40;;;1.40;;
12689;SDS011;6409;56.294;14.480;2022-09-19T12:25:24;1.40;;;1.40;;
12689;SDS011;6409;56.294;14.480;2022-09-19T12:27:56;1.40;;;1.40;;
12689;SDS011;6409;56.294;14.480;2022-09-19T12:30:28;1.40;;;1.40;;
12689;SDS011;6409;56.294;14.480;2022-09-19T12:32:58;1.90;;;1.80;;
12689;SDS011;6409;56.294;14.480;2022-09-19T12:35:33;1.50;;;1.50;;
12689;SDS011;6409;56.294;14.480;2022-09-19T12:38:07;1.40;;;1.40;;
12689;SDS011;6409;56.294;14.480;2022-09-19T12:40:44;1.30;;;1.30;;
12689;SDS011;6409;56.294;14.480;2022-09-19T12:43:17;1.40;;;1.40;;
12689;SDS011;6409;56.294;14.480;2022-09-19T12:45:50;3.17;;;1.60;;
12689;SDS011;6409;56.294;14.480;2022-09-19T12:48:21;1.40;;;1.40;;
12689;SDS011;6409;56.294;14.480;2022-09-19T12:50:56;2.03;;;1.90;;
12689;SDS011;6409;56.294;14.480;2022-09-19T12:53:25;3.67;;;2.20;;
12689;SDS011;6409;56.294;14.480;2022-09-19T12:56:02;1.70;;;1.70;;
12689;SDS011;6409;56.294;14.480;2022-09-19T12:58:32;1.70;;;1.60;;
12689;SDS011;6409;56.294;14.480;2022-09-19T13:01:14;1.60;;;1.60;;
12689;SDS011;6409;56.294;14.480;2022-09-19T13:03:45;2.10;;;1.70;;
12689;SDS011;6409;56.294;14.480;2022-09-19T13:06:17;3.90;;;1.53;;
12689;SDS011;6409;56.294;14.480;2022-09-19T13:08:46;1.60;;;1.60;;
12689;SDS011;6409;56.294;14.480;2022-09-19T13:11:17;1.60;;;1.60;;
12689;SDS011;6409;56.294;14.480;2022-09-19T13:13:50;1.70;;;1.70;;
12689;SDS011;6409;56.294;14.480;2022-09-19T13:16:19;1.80;;;1.70;;
12689;SDS011;6409;56.294;14.480;2022-09-19T13:18:49;1.60;;;1.60;;
12689;SDS011;6409;56.294;14.480;2022-09-19T13:21:37;1.80;;;1.70;;
12689;SDS011;6409;56.294;14.480;2022-09-19T13:24:23;1.60;;;1.60;;
12689;SDS011;6409;56.294;14.480;2022-09-19T13:26:54;1.80;;;1.70;;
12689;SDS011;6409;56.294;14.480;2022-09-19T13:32:25;1.50;;;1.50;;
12689;SDS011;6409;56.294;14.480;2022-09-19T13:35:12;1.73;;;1.60;;
12689;SDS011;6409;56.294;14.480;2022-09-19T13:40:46;1.70;;;1.60;;
12689;SDS011;6409;56.294;14.480;2022-09-19T13:46:11;1.60;;;1.60;;
12689;SDS011;6409;56.294;14.480;2022-09-19T13:48:43;1.60;;;1.60;;
12689;SDS011;6409;56.294;14.480;2022-09-19T13:51:13;1.50;;;1.50;;
12689;SDS011;6409;56.294;14.480;2022-09-19T13:57:00;1.50;;;1.50;;
12689;SDS011;6409;56.294;14.480;2022-09-19T13:59:28;1.60;;;1.60;;
12689;SDS011;6409;56.294;14.480;2022-09-19T14:01:58;1.70;;;1.60;;
12689;SDS011;6409;56.294;14.480;2022-09-19T14:04:32;1.70;;;1.60;;
12689;SDS011;6409;56.294;14.480;2022-09-19T14:07:17;4.30;;;1.50;;
12689;SDS011;6409;56.294;14.480;2022-09-19T14:09:46;1.40;;;1.40;;
12689;SDS011;6409;56.294;14.480;2022-09-19T14:24:35;1.43;;;1.43;;
12689;SDS011;6409;56.294;14.480;2022-09-19T14:30:28;1.40;;;1.40;;
12689;SDS011;6409;56.294;14.480;2022-09-19T14:33:33;1.30;;;1.30;;
12689;SDS011;6409;56.294;14.480;2022-09-19T14:36:28;1.50;;;1.40;;
12689;SDS011;6409;56.294;14.480;2022-09-19T14:39:10;1.30;;;1.30;;
12689;SDS011;6409;56.294;14.480;2022-09-19T14:41:44;1.40;;;1.40;;
12689;SDS011;6409;56.294;14.480;2022-09-19T14:44:35;1.20;;;1.20;;
12689;SDS011;6409;56.294;14.480;2022-09-19T14:47:18;1.30;;;1.30;;
12689;SDS011;6409;56.294;14.480;2022-09-19T14:49:50;1.30;;;1.30;;
12689;SDS011;6409;56.294;14.480;2022-09-19T14:52:24;1.40;;;1.40;;
12689;SDS011;6409;56.294;14.480;2022-09-19T14:54:54;1.40;;;1.40;;
12689;SDS011;6409;56.294;14.480;2022-09-19T14:57:25;1.40;;;1.40;;
12689;SDS011;6409;56.294;14.480;2022-09-19T14:59:54;1.40;;;1.40;;
12689;SDS011;6409;56.294;14.480;2022-09-19T15:02:41;1.33;;;1.33;;
12689;SDS011;6409;56.294;14.480;2022-09-19T15:05:14;1.80;;;1.40;;
12689;SDS011;6409;56.294;14.480;2022-09-19T15:07:43;1.40;;;1.40;;
12689;SDS011;6409;56.294;14.480;2022-09-19T15:10:20;1.50;;;1.50;;
12689;SDS011;6409;56.294;14.480;2022-09-19T15:12:56;1.33;;;1.33;;
12689;SDS011;6409;56.294;14.480;2022-09-19T15:15:24;1.30;;;1.30;;
12689;SDS011;6409;56.294;14.480;2022-09-19T15:17:54;1.30;;;1.30;;
12689;SDS011;6409;56.294;14.480;2022-09-19T15:20:21;4.17;;;1.40;;
12689;SDS011;6409;56.294;14.480;2022-09-19T15:22:49;1.30;;;1.30;;
12689;SDS011;6409;56.294;14.480;2022-09-19T15:25:19;1.30;;;1.30;;
12689;SDS011;6409;56.294;14.480;2022-09-19T15:27:48;1.30;;;1.30;;
12689;SDS011;6409;56.294;14.480;2022-09-19T15:30:18;1.40;;;1.40;;
12689;SDS011;6409;56.294;14.480;2022-09-19T15:32:47;1.30;;;1.30;;
12689;SDS011;6409;56.294;14.480;2022-09-19T15:35:19;1.30;;;1.30;;
12689;SDS011;6409;56.294;14.480;2022-09-19T15:37:47;1.30;;;1.30;;
12689;SDS011;6409;56.294;14.480;2022-09-19T15:40:17;1.30;;;1.30;;
12689;SDS011;6409;56.294;14.480;2022-09-19T15:42:46;1.30;;;1.30;;
12689;SDS011;6409;56.294;14.480;2022-09-19T15:48:11;1.10;;;1.10;;